createdAt,value
2023-03-29T00:00:31.021Z,3.87
2023-03-29T00:03:01.541Z,2.95
2023-03-29T00:05:31.230Z,4.75
2023-03-29T00:08:01.286Z,3.05
2023-03-29T00:10:30.820Z,3.02
2023-03-29T00:12:58.699Z,3.95
2023-03-29T00:15:26.916Z,4.00
2023-03-29T00:17:54.696Z,3.58
2023-03-29T00:20:22.659Z,3.98
2023-03-29T00:22:50.448Z,5.03
2023-03-29T00:25:18.230Z,3.77
2023-03-29T00:27:46.537Z,2.95
2023-03-29T00:30:14.953Z,4.78
2023-03-29T00:32:43.645Z,4.55
2023-03-29T00:35:11.882Z,4.87
2023-03-29T00:37:40.790Z,4.50
2023-03-29T00:40:14.899Z,4.20
2023-03-29T00:42:45.735Z,3.58
2023-03-29T00:45:28.540Z,4.10
2023-03-29T00:48:04.486Z,3.30
2023-03-29T00:50:49.513Z,4.12
2023-03-29T00:53:36.840Z,5.05
2023-03-29T00:56:23.836Z,7.08
2023-03-29T00:59:05.735Z,4.72
2023-03-29T01:01:53.970Z,6.97
2023-03-29T01:04:36.459Z,5.60
2023-03-29T01:07:22.203Z,4.05
2023-03-29T01:10:15.944Z,4.90
2023-03-29T01:12:48.282Z,5.03
2023-03-29T01:15:20.690Z,3.92
2023-03-29T01:17:53.103Z,6.47
2023-03-29T01:20:42.998Z,4.30
2023-03-29T01:23:43.602Z,4.05
2023-03-29T01:26:51.069Z,4.87
2023-03-29T01:29:30.175Z,4.25
2023-03-29T01:32:06.378Z,4.72
2023-03-29T01:34:42.280Z,3.90
2023-03-29T01:37:23.446Z,5.90
2023-03-29T01:39:52.693Z,5.20
2023-03-29T01:42:44.144Z,2.92
2023-03-29T01:45:23.466Z,6.05
2023-03-29T01:48:18.173Z,6.37
2023-03-29T01:50:55.640Z,5.17
2023-03-29T01:53:31.099Z,4.22
2023-03-29T01:58:36.343Z,4.55
2023-03-29T02:01:09.849Z,4.05
2023-03-29T02:03:42.158Z,4.25
2023-03-29T02:06:20.242Z,6.00
2023-03-29T02:08:49.316Z,3.55
2023-03-29T02:11:18.168Z,4.17
2023-03-29T02:13:46.083Z,5.28
2023-03-29T02:16:15.519Z,6.42
2023-03-29T02:18:46.451Z,4.83
2023-03-29T02:21:22.568Z,4.15
2023-03-29T02:23:54.053Z,5.55
2023-03-29T02:26:23.381Z,5.45
2023-03-29T02:28:52.288Z,4.50
2023-03-29T02:31:34.594Z,4.40
2023-03-29T02:34:19.524Z,4.33
2023-03-29T02:36:56.097Z,6.22
2023-03-29T02:39:27.518Z,4.85
2023-03-29T02:41:56.252Z,4.53
2023-03-29T02:44:31.110Z,4.33
2023-03-29T02:47:10.773Z,3.70
2023-03-29T02:49:39.031Z,2.47
2023-03-29T02:52:16.433Z,3.62
2023-03-29T02:54:47.510Z,4.15
2023-03-29T02:57:15.518Z,3.58
2023-03-29T02:59:44.392Z,4.40
2023-03-29T03:02:13.306Z,3.17
2023-03-29T03:04:41.174Z,2.60
2023-03-29T03:07:09.212Z,2.92
2023-03-29T03:09:37.215Z,3.08
2023-03-29T03:12:05.872Z,2.95
2023-03-29T03:14:33.603Z,4.12
2023-03-29T03:17:04.395Z,3.37
2023-03-29T03:19:31.464Z,3.55
2023-03-29T03:21:59.211Z,2.87
2023-03-29T03:24:27.745Z,2.65
2023-03-29T03:26:57.108Z,2.50
2023-03-29T03:29:28.485Z,4.65
2023-03-29T03:31:58.944Z,4.90
2023-03-29T03:34:44.980Z,3.83
2023-03-29T03:37:12.681Z,4.17
2023-03-29T03:39:41.149Z,3.37
2023-03-29T03:42:10.240Z,2.77
2023-03-29T03:44:40.059Z,4.05
2023-03-29T03:47:18.376Z,5.08
2023-03-29T03:49:47.698Z,5.12
2023-03-29T03:52:15.820Z,5.30
2023-03-29T03:54:45.298Z,5.40
2023-03-29T03:57:31.808Z,4.33
2023-03-29T03:59:59.888Z,4.83
2023-03-29T04:02:30.314Z,5.62
2023-03-29T04:05:00.518Z,6.53
2023-03-29T04:07:30.218Z,9.13
2023-03-29T04:10:03.765Z,9.38
2023-03-29T04:12:31.882Z,7.00
2023-03-29T04:14:59.704Z,5.35
2023-03-29T04:17:28.094Z,5.70
2023-03-29T04:20:01.845Z,9.28
2023-03-29T04:22:31.602Z,7.10
2023-03-29T04:24:59.267Z,5.60
2023-03-29T04:27:32.586Z,5.95
2023-03-29T04:30:02.465Z,7.55
2023-03-29T04:32:31.965Z,7.90
2023-03-29T04:35:05.574Z,10.38
2023-03-29T04:37:33.930Z,6.65
2023-03-29T04:40:03.912Z,7.80
2023-03-29T04:42:33.974Z,7.58
2023-03-29T04:45:01.984Z,10.25
2023-03-29T04:47:32.227Z,8.93
2023-03-29T04:50:05.941Z,9.13
2023-03-29T04:52:41.884Z,8.75
2023-03-29T04:55:12.333Z,7.33
2023-03-29T04:57:44.759Z,10.50
2023-03-29T05:00:22.903Z,9.35
2023-03-29T05:02:53.439Z,9.40
2023-03-29T05:05:23.808Z,8.73
2023-03-29T05:07:52.473Z,10.35
2023-03-29T05:10:22.982Z,17.52
2023-03-29T05:12:52.666Z,10.70
2023-03-29T05:15:21.943Z,17.23
2023-03-29T05:17:50.239Z,14.90
2023-03-29T05:20:18.223Z,12.07
2023-03-29T05:22:48.378Z,9.58
2023-03-29T05:25:19.174Z,8.55
2023-03-29T05:27:47.296Z,10.98
2023-03-29T05:30:15.680Z,11.97
2023-03-29T05:32:52.355Z,9.65
2023-03-29T05:35:23.784Z,10.00
2023-03-29T05:37:51.525Z,6.47
2023-03-29T05:40:19.491Z,13.20
2023-03-29T05:42:49.235Z,13.58
2023-03-29T05:45:17.262Z,11.03
2023-03-29T05:47:45.891Z,6.33
2023-03-29T05:50:13.687Z,8.60
2023-03-29T05:52:42.658Z,9.13
2023-03-29T05:55:10.594Z,8.85
2023-03-29T05:57:38.773Z,12.25
2023-03-29T06:00:15.547Z,6.25
2023-03-29T06:02:43.446Z,10.48
2023-03-29T06:05:11.426Z,8.63
2023-03-29T06:07:41.891Z,8.95
2023-03-29T06:10:13.062Z,6.05
2023-03-29T06:12:42.426Z,10.28
2023-03-29T06:15:10.875Z,7.78
2023-03-29T06:17:47.528Z,6.67
2023-03-29T06:20:16.609Z,6.28
2023-03-29T06:22:47.466Z,7.15
2023-03-29T06:25:17.139Z,10.68
2023-03-29T06:27:49.166Z,8.60
2023-03-29T06:30:18.664Z,14.65
2023-03-29T06:32:49.916Z,12.33
2023-03-29T06:35:25.570Z,10.80
2023-03-29T06:37:55.521Z,9.15
2023-03-29T06:40:30.452Z,13.72
2023-03-29T06:42:58.934Z,7.78
2023-03-29T06:45:46.767Z,9.00
2023-03-29T06:48:21.245Z,9.68
2023-03-29T06:50:49.331Z,7.70
2023-03-29T06:53:18.549Z,6.67
2023-03-29T06:55:50.307Z,5.92
2023-03-29T06:58:25.893Z,4.95
2023-03-29T07:01:04.332Z,6.65
2023-03-29T07:03:35.671Z,3.37
2023-03-29T07:06:06.883Z,4.25
2023-03-29T07:08:41.657Z,14.70
2023-03-29T07:11:13.684Z,4.85
2023-03-29T07:13:43.642Z,10.53
2023-03-29T07:16:13.609Z,7.53
2023-03-29T07:18:56.233Z,9.33
2023-03-29T07:21:42.544Z,8.85
2023-03-29T07:24:10.750Z,5.58
2023-03-29T07:26:40.487Z,8.33
2023-03-29T07:29:08.872Z,9.00
2023-03-29T07:31:39.484Z,10.28
2023-03-29T07:36:39.751Z,5.95
2023-03-29T07:39:12.546Z,3.80
2023-03-29T07:41:40.840Z,7.12
2023-03-29T07:44:13.395Z,5.90
2023-03-29T07:46:42.845Z,6.08
2023-03-29T07:49:10.720Z,9.30
2023-03-29T07:51:38.321Z,7.45
2023-03-29T07:54:07.732Z,10.68
2023-03-29T07:56:40.862Z,9.40
2023-03-29T07:59:23.652Z,5.28
2023-03-29T08:01:56.144Z,8.40
2023-03-29T08:04:26.109Z,6.53
2023-03-29T08:07:13.271Z,12.03
2023-03-29T08:09:43.039Z,13.03
2023-03-29T08:12:11.033Z,7.65
2023-03-29T08:14:38.904Z,10.32
2023-03-29T08:17:15.487Z,6.05
2023-03-29T08:19:51.043Z,9.95
2023-03-29T08:22:15.930Z,10.40
2023-03-29T08:25:02.320Z,9.40
2023-03-29T08:27:31.966Z,7.28
2023-03-29T08:30:00.178Z,10.72
2023-03-29T08:32:28.138Z,9.58
2023-03-29T08:34:55.813Z,10.50
2023-03-29T08:37:25.416Z,26.97
2023-03-29T08:39:54.492Z,10.05
2023-03-29T08:42:51.565Z,5.35
2023-03-29T08:45:31.458Z,7.03
2023-03-29T08:48:26.808Z,4.97
2023-03-29T08:51:03.456Z,11.60
2023-03-29T08:53:41.354Z,11.40
2023-03-29T08:56:18.239Z,9.70
2023-03-29T08:59:00.342Z,9.80
2023-03-29T09:01:34.309Z,5.00
2023-03-29T09:04:10.806Z,4.80
2023-03-29T09:06:40.615Z,9.80
2023-03-29T09:09:21.347Z,10.95
2023-03-29T09:12:18.994Z,9.25
2023-03-29T09:15:19.184Z,6.85
2023-03-29T09:18:23.018Z,9.15
2023-03-29T09:21:01.663Z,3.27
2023-03-29T09:23:55.716Z,5.55
2023-03-29T09:26:47.194Z,6.75
2023-03-29T09:29:54.742Z,4.78
2023-03-29T09:32:41.789Z,4.30
2023-03-29T09:37:51.057Z,6.45
2023-03-29T09:40:24.238Z,11.43
2023-03-29T09:42:55.780Z,5.87
2023-03-29T09:45:23.556Z,7.55
2023-03-29T09:48:02.488Z,5.65
2023-03-29T09:50:46.278Z,4.85
2023-03-29T09:53:15.862Z,5.90
2023-03-29T09:55:50.316Z,22.98
2023-03-29T09:58:32.503Z,9.78
2023-03-29T10:01:05.056Z,13.22
2023-03-29T10:03:34.488Z,10.55
2023-03-29T10:06:09.744Z,13.18
2023-03-29T10:08:52.196Z,8.50
2023-03-29T10:11:37.543Z,9.40
2023-03-29T10:14:16.458Z,3.62
2023-03-29T10:16:45.740Z,6.05
2023-03-29T10:19:34.226Z,5.75
2023-03-29T10:22:07.650Z,8.48
2023-03-29T10:24:35.641Z,4.75
2023-03-29T10:27:07.308Z,4.72
2023-03-29T10:29:40.017Z,11.53
2023-03-29T10:32:33.173Z,13.72
2023-03-29T10:35:21.493Z,8.10
2023-03-29T10:37:52.645Z,10.68
2023-03-29T10:40:28.850Z,13.72
2023-03-29T10:43:23.986Z,4.78
2023-03-29T10:45:56.781Z,7.62
2023-03-29T10:48:30.615Z,5.78
2023-03-29T10:51:01.372Z,5.40
2023-03-29T10:53:36.064Z,5.12
2023-03-29T10:56:20.724Z,5.50
2023-03-29T10:59:22.382Z,6.37
2023-03-29T11:02:12.424Z,2.12
2023-03-29T11:05:11.252Z,4.40
2023-03-29T11:07:50.269Z,8.55
2023-03-29T11:10:54.732Z,12.37
2023-03-29T11:13:58.675Z,6.55
2023-03-29T11:17:00.389Z,6.03
2023-03-29T11:19:54.980Z,7.62
2023-03-29T11:22:52.785Z,13.05
2023-03-29T11:25:28.429Z,4.40
2023-03-29T11:28:07.006Z,8.85
2023-03-29T11:30:42.414Z,8.45
2023-03-29T11:36:49.973Z,5.92
2023-03-29T11:39:38.982Z,12.95
2023-03-29T11:42:23.417Z,10.00
2023-03-29T11:44:55.098Z,13.85
2023-03-29T11:47:27.469Z,4.92
2023-03-29T11:50:05.999Z,3.37
2023-03-29T11:52:44.128Z,16.93
2023-03-29T11:55:16.817Z,4.20
2023-03-29T11:57:56.208Z,6.10
2023-03-29T12:00:38.093Z,8.15
2023-03-29T12:03:39.503Z,9.40
2023-03-29T12:06:37.218Z,11.40
2023-03-29T12:09:29.054Z,10.48
2023-03-29T12:12:17.246Z,12.10
2023-03-29T12:15:10.356Z,10.20
2023-03-29T12:17:44.952Z,9.13
2023-03-29T12:20:27.589Z,18.62
2023-03-29T12:22:57.537Z,7.80
2023-03-29T12:25:33.340Z,9.70
2023-03-29T12:28:32.822Z,7.75
2023-03-29T12:31:17.592Z,4.92
2023-03-29T12:34:33.868Z,10.15
2023-03-29T12:37:51.781Z,3.58
2023-03-29T12:40:45.210Z,5.60
2023-03-29T12:43:40.735Z,6.83
2023-03-29T12:46:25.777Z,17.62
2023-03-29T12:49:02.534Z,8.58
2023-03-29T12:51:33.617Z,6.75
2023-03-29T12:54:18.616Z,6.15
2023-03-29T12:57:03.980Z,3.92
2023-03-29T12:59:47.261Z,7.72
2023-03-29T13:02:21.149Z,5.83
2023-03-29T13:05:00.820Z,14.45
2023-03-29T13:07:34.093Z,8.35
2023-03-29T13:10:08.726Z,8.03
2023-03-29T13:12:41.756Z,6.30
2023-03-29T13:15:21.494Z,8.53
2023-03-29T13:18:32.508Z,6.90
2023-03-29T13:21:47.871Z,4.62
2023-03-29T13:24:48.476Z,8.60
2023-03-29T13:28:02.310Z,2.62
2023-03-29T13:30:48.901Z,6.67
2023-03-29T13:33:33.254Z,3.92
2023-03-29T13:36:36.670Z,4.22
2023-03-29T13:39:09.554Z,4.60
2023-03-29T13:41:46.249Z,7.35
2023-03-29T13:44:45.351Z,5.30
2023-03-29T13:47:37.581Z,7.42
2023-03-29T13:50:20.159Z,5.12
2023-03-29T13:53:29.510Z,4.10
2023-03-29T13:55:58.200Z,5.60
2023-03-29T13:58:46.141Z,7.40
2023-03-29T14:01:36.377Z,7.08
2023-03-29T14:04:07.980Z,20.45
2023-03-29T14:06:39.051Z,3.75
2023-03-29T14:09:15.577Z,9.13
2023-03-29T14:11:58.688Z,7.87
2023-03-29T14:14:33.451Z,7.67
2023-03-29T14:17:07.996Z,8.08
2023-03-29T14:19:39.699Z,5.83
2023-03-29T14:22:15.550Z,9.70
2023-03-29T14:27:18.764Z,4.87
2023-03-29T14:29:49.001Z,5.00
2023-03-29T14:32:30.414Z,10.40
2023-03-29T14:35:00.261Z,4.62
2023-03-29T14:37:28.789Z,7.50
2023-03-29T14:39:58.923Z,6.67
2023-03-29T14:42:29.060Z,7.08
2023-03-29T14:45:08.641Z,11.75
2023-03-29T14:47:38.224Z,9.75
2023-03-29T14:50:10.241Z,5.50
2023-03-29T14:52:38.460Z,9.93
2023-03-29T14:55:09.479Z,7.72
2023-03-29T14:57:37.732Z,7.55
2023-03-29T15:00:26.328Z,4.72
2023-03-29T15:03:02.452Z,6.78
2023-03-29T15:05:43.408Z,10.88
2023-03-29T15:08:19.333Z,20.10
2023-03-29T15:10:46.988Z,10.93
2023-03-29T15:13:23.150Z,11.88
2023-03-29T15:15:58.519Z,9.53
2023-03-29T15:18:41.550Z,12.55
2023-03-29T15:21:12.954Z,13.08
2023-03-29T15:23:54.969Z,5.97
2023-03-29T15:26:36.182Z,8.18
2023-03-29T15:29:16.509Z,7.40
2023-03-29T15:31:49.684Z,16.23
2023-03-29T15:34:26.626Z,7.30
2023-03-29T15:36:56.684Z,9.90
2023-03-29T15:39:30.405Z,6.05
2023-03-29T15:42:07.854Z,8.88
2023-03-29T15:44:38.477Z,9.95
2023-03-29T15:47:13.243Z,10.05
2023-03-29T15:49:41.346Z,4.92
2023-03-29T15:52:09.055Z,8.93
2023-03-29T15:54:36.936Z,6.70
2023-03-29T15:57:16.738Z,9.20
2023-03-29T15:59:44.869Z,20.77
2023-03-29T16:02:16.918Z,19.10
2023-03-29T16:04:44.964Z,18.80
2023-03-29T16:07:22.805Z,28.15
2023-03-29T16:10:18.709Z,19.32
2023-03-29T16:15:44.045Z,11.35
2023-03-29T16:18:12.592Z,12.75
2023-03-29T16:20:41.164Z,16.77
2023-03-29T16:23:09.330Z,14.65
2023-03-29T16:25:39.847Z,12.80
2023-03-29T16:28:09.587Z,17.02
2023-03-29T16:30:38.350Z,13.65
2023-03-29T16:33:07.822Z,10.55
2023-03-29T16:35:39.568Z,14.58
2023-03-29T16:38:08.892Z,10.80
2023-03-29T16:40:38.684Z,12.75
2023-03-29T16:43:06.932Z,19.57
2023-03-29T16:45:34.565Z,17.48
2023-03-29T16:48:04.793Z,16.87
2023-03-29T16:50:32.579Z,26.12
2023-03-29T16:53:00.261Z,22.73
2023-03-29T16:55:28.102Z,30.02
2023-03-29T16:57:55.782Z,19.05
2023-03-29T17:00:23.760Z,12.93
2023-03-29T17:02:51.914Z,12.88
2023-03-29T17:05:19.907Z,12.58
2023-03-29T17:07:47.969Z,18.70
2023-03-29T17:10:15.827Z,26.45
2023-03-29T17:12:43.610Z,18.75
2023-03-29T17:15:11.678Z,15.98
2023-03-29T17:17:39.508Z,41.68
2023-03-29T17:20:11.416Z,21.40
2023-03-29T17:22:40.129Z,24.10
2023-03-29T17:25:09.282Z,23.98
2023-03-29T17:27:37.466Z,25.77
2023-03-29T17:30:06.927Z,17.05
2023-03-29T17:32:35.297Z,15.05
2023-03-29T17:35:04.440Z,13.05
2023-03-29T17:37:34.398Z,21.35
2023-03-29T17:40:10.708Z,16.30
2023-03-29T17:42:38.600Z,23.83
2023-03-29T17:45:07.953Z,53.15
2023-03-29T17:47:36.748Z,25.85
2023-03-29T17:50:06.654Z,16.05
2023-03-29T17:52:34.721Z,13.60
2023-03-29T17:55:02.954Z,19.48
2023-03-29T17:57:30.761Z,16.35
2023-03-29T17:59:58.431Z,18.87
2023-03-29T18:02:26.390Z,33.50
2023-03-29T18:04:56.676Z,26.30
2023-03-29T18:07:24.437Z,25.37
2023-03-29T18:09:51.992Z,28.02
2023-03-29T18:12:19.648Z,26.50
2023-03-29T18:14:47.391Z,25.27
2023-03-29T18:17:24.214Z,27.80
2023-03-29T18:19:52.966Z,28.35
2023-03-29T18:22:24.834Z,25.23
2023-03-29T18:24:54.472Z,33.28
2023-03-29T18:27:22.340Z,27.62
2023-03-29T18:29:50.828Z,30.05
2023-03-29T18:32:18.949Z,22.80
2023-03-29T18:34:48.170Z,30.90
2023-03-29T18:37:19.699Z,53.78
2023-03-29T18:39:48.572Z,27.25
2023-03-29T18:42:17.729Z,33.45
2023-03-29T18:44:47.617Z,30.77
2023-03-29T18:47:17.433Z,42.83
2023-03-29T18:49:45.338Z,43.60
2023-03-29T18:52:13.722Z,40.10
2023-03-29T18:54:42.889Z,45.40
2023-03-29T18:57:11.082Z,49.83
2023-03-29T18:59:41.267Z,53.90
2023-03-29T19:02:10.519Z,58.85
2023-03-29T19:04:39.582Z,60.15
2023-03-29T19:07:08.337Z,67.50
2023-03-29T19:09:36.091Z,66.53
2023-03-29T19:12:04.153Z,59.90
2023-03-29T19:14:33.905Z,61.08
2023-03-29T19:17:04.033Z,62.98
2023-03-29T19:19:31.981Z,66.30
2023-03-29T19:22:00.725Z,82.70
2023-03-29T19:24:28.584Z,66.50
2023-03-29T19:26:56.911Z,76.10
2023-03-29T19:29:25.697Z,82.15
2023-03-29T19:31:54.241Z,110.88
2023-03-29T19:34:24.103Z,127.67
2023-03-29T19:36:53.660Z,117.65
2023-03-29T19:39:22.200Z,103.17
2023-03-29T19:41:50.343Z,91.32
2023-03-29T19:44:19.551Z,93.12
2023-03-29T19:46:48.993Z,120.82
2023-03-29T19:49:17.317Z,130.10
2023-03-29T19:51:45.044Z,136.65
2023-03-29T19:54:13.462Z,142.45
2023-03-29T19:56:42.334Z,117.13
2023-03-29T19:59:11.744Z,132.07
2023-03-29T20:01:41.539Z,201.62
2023-03-29T20:04:09.663Z,242.95
2023-03-29T20:06:37.297Z,204.57
2023-03-29T20:09:07.027Z,210.82
2023-03-29T20:11:34.990Z,159.12
2023-03-29T20:14:03.798Z,130.85
2023-03-29T20:16:33.588Z,152.90
2023-03-29T20:19:02.102Z,145.85
2023-03-29T20:21:29.843Z,155.85
2023-03-29T20:23:57.605Z,129.95
2023-03-29T20:26:25.454Z,145.87
2023-03-29T20:28:53.144Z,154.85
2023-03-29T20:31:37.045Z,138.47
2023-03-29T20:34:04.920Z,146.25
2023-03-29T20:36:32.840Z,148.78
2023-03-29T20:39:01.567Z,155.05
2023-03-29T20:41:30.851Z,147.60
2023-03-29T20:43:59.130Z,141.88
2023-03-29T20:46:36.546Z,142.77
2023-03-29T20:49:08.313Z,155.43
2023-03-29T20:51:39.266Z,150.82
2023-03-29T20:54:07.128Z,145.02
2023-03-29T20:56:39.340Z,111.47
2023-03-29T20:59:09.832Z,95.30
2023-03-29T21:01:39.516Z,95.10
2023-03-29T21:04:16.727Z,74.32
2023-03-29T21:06:50.914Z,85.53
2023-03-29T21:09:21.648Z,115.97
2023-03-29T21:11:50.830Z,110.03
2023-03-29T21:14:20.601Z,109.00
2023-03-29T21:16:51.276Z,97.53
2023-03-29T21:19:19.208Z,76.53
2023-03-29T21:21:47.741Z,76.53
2023-03-29T21:24:15.510Z,64.58
2023-03-29T21:26:43.436Z,58.63
2023-03-29T21:29:11.279Z,61.77
2023-03-29T21:31:39.151Z,59.75
2023-03-29T21:34:07.033Z,57.15
2023-03-29T21:36:35.266Z,62.83
2023-03-29T21:39:03.868Z,59.30
2023-03-29T21:41:31.792Z,64.60
2023-03-29T21:43:59.807Z,65.45
2023-03-29T21:46:27.920Z,57.85
2023-03-29T21:48:55.882Z,58.58
2023-03-29T21:51:23.712Z,56.58
2023-03-29T21:53:51.721Z,61.50
2023-03-29T21:56:19.986Z,62.23
2023-03-29T21:58:47.802Z,65.62
2023-03-29T22:01:15.797Z,60.45
2023-03-29T22:03:43.722Z,60.15
2023-03-29T22:06:13.414Z,63.90
2023-03-29T22:08:41.347Z,60.33
2023-03-29T22:11:16.800Z,62.27
2023-03-29T22:13:45.284Z,63.28
2023-03-29T22:16:15.534Z,58.13
2023-03-29T22:18:47.264Z,69.92
2023-03-29T22:21:24.736Z,65.97
2023-03-29T22:23:55.526Z,71.50
2023-03-29T22:26:27.794Z,66.97
2023-03-29T22:28:57.141Z,77.85
2023-03-29T22:31:26.597Z,62.70
2023-03-29T22:33:55.693Z,68.07
2023-03-29T22:36:27.728Z,60.43
2023-03-29T22:38:56.055Z,65.42
2023-03-29T22:41:27.067Z,58.02
2023-03-29T22:43:57.437Z,56.45
2023-03-29T22:46:25.807Z,57.65
2023-03-29T22:48:53.896Z,47.88
2023-03-29T22:51:21.908Z,44.60
2023-03-29T22:53:49.619Z,38.55
2023-03-29T22:56:18.001Z,36.98
2023-03-29T22:58:46.088Z,34.92
2023-03-29T23:01:14.144Z,35.20
2023-03-29T23:03:42.009Z,31.87
2023-03-29T23:06:10.077Z,33.18
2023-03-29T23:08:39.873Z,34.35
2023-03-29T23:11:07.657Z,41.75
2023-03-29T23:13:35.598Z,40.43
2023-03-29T23:16:04.343Z,38.58
2023-03-29T23:18:34.399Z,40.73
2023-03-29T23:21:04.788Z,37.80
2023-03-29T23:23:33.855Z,41.40
2023-03-29T23:26:02.321Z,39.80
2023-03-29T23:28:30.868Z,41.35
2023-03-29T23:31:11.419Z,45.08
2023-03-29T23:33:42.067Z,38.02
2023-03-29T23:36:14.304Z,42.85
2023-03-29T23:38:45.337Z,35.70
2023-03-29T23:41:13.514Z,44.83
2023-03-29T23:43:43.621Z,43.95
2023-03-29T23:46:14.902Z,40.28
2023-03-29T23:48:48.524Z,40.03
2023-03-29T23:51:18.308Z,46.55
2023-03-29T23:53:48.038Z,46.77
2023-03-29T23:56:15.690Z,50.28
2023-03-29T23:58:44.071Z,53.87
